KGUS/GUS METAR and TAF weather

Enter ICAO airport designator
Station Type Date Time Source
KGUS METAR 2019/06/19 00:56 UTC NOAA

KGUS 190056Z AUTO 00000KT 10SM FEW065 24/21 A2984 RMK AO2 SLP103 T02430208 $


Station Type Date Time Source
KGUS Decoded METAR 2019/06/19 00:56 UTC NOAA

Grissom Air Force Base / Peru, IN, United States (KGUS) 40-39N 086-09W
Jun 18, 2019 - 08:56 PM EDT / 2019.06.19 0056 UTC
Wind: Calm:0
Visibility: 10 mile(s):0
Sky conditions: mostly clear
Temperature: 75.7 F (24.3 C)
Dew Point: 69.4 F (20.8 C)
Relative Humidity: 80%
Pressure (altimeter): 29.84 in. Hg (1010 hPa)
ob: KGUS 190056Z AUTO 00000KT 10SM FEW065 24/21 A2984 RMK AO2 SLP103 T02430208
cycle: 1

Station Type Date Time Source
KGUS TAF 2019/06/18 19:12 UTC NOAA

TAF TAF KGUS 181900Z 1819/2001 VRB06KT 8000 -SHRA SCT030 QNH2986INS
BECMG 1900/1901 20006KT 9999 NSW BKN030 QNH2983INS
BECMG 1907/1908 20006KT 9999 BKN030 QNH2982INS
BECMG 1914/1915 22006KT 8000 -SHRA SCT012 BKN024 QNH2977INS
TEMPO 1918/1924 22015G25KT 6000 -TSRA OVC012CB TX28/1821Z TN16/1910Z

Example: see airport list